Anawalt, West Virginia
Current Conditions -  °F | °C
As of 6:52 AM on Friday 31 Oct 2014 (Local Time) from KBLF Reporting Station
Broken Clouds Broken Clouds  
Wind Chill: 40°   Ceiling: 3400
Heat Index: 40°   Visibility: 10mi
Dew Point: 31°   Wind: 0mph
Humidity: 70%   Direction: NA
Pressure: 29.95"   Gusts: NA
Location:  37.34°N, 81.44°W
Report Text: KBLF 311052Z AUTO 00000KT 10SM FEW029 BKN034 04/M01 A2995 RMK AO2 SLP140 T00441006
Loading
Personal Weather Stations






























Interactive Weather Map
Tropical Storm Tracking
New forecast layout! Learn more

10-Day Weather Forecast

Advertisements
Track Severe Weather on mobile